sensor_id;sensor_type;location;lat;lon;timestamp;temperature;humidity
81202;DHT22;71068;47.662;-2.750;2023-11-19T00:02:21;16.70;84.90
81202;DHT22;71068;47.662;-2.750;2023-11-19T00:04:47;16.60;84.60
81202;DHT22;71068;47.662;-2.750;2023-11-19T00:07:13;16.70;84.90
81202;DHT22;71068;47.662;-2.750;2023-11-19T00:09:40;16.70;84.60
81202;DHT22;71068;47.662;-2.750;2023-11-19T00:12:06;16.70;84.50
81202;DHT22;71068;47.662;-2.750;2023-11-19T00:14:33;16.70;84.20
81202;DHT22;71068;47.662;-2.750;2023-11-19T00:17:10;16.70;84.70
81202;DHT22;71068;47.662;-2.750;2023-11-19T00:19:38;16.70;84.70
81202;DHT22;71068;47.662;-2.750;2023-11-19T00:22:06;16.70;84.60
81202;DHT22;71068;47.662;-2.750;2023-11-19T00:24:32;16.60;84.70
81202;DHT22;71068;47.662;-2.750;2023-11-19T00:26:58;16.60;84.50
81202;DHT22;71068;47.662;-2.750;2023-11-19T00:29:24;16.70;84.50
81202;DHT22;71068;47.662;-2.750;2023-11-19T00:31:50;16.70;84.70
81202;DHT22;71068;47.662;-2.750;2023-11-19T00:34:16;16.70;84.90
81202;DHT22;71068;47.662;-2.750;2023-11-19T00:36:49;16.60;84.80
81202;DHT22;71068;47.662;-2.750;2023-11-19T00:39:15;16.60;84.80
81202;DHT22;71068;47.662;-2.750;2023-11-19T00:41:43;16.60;84.30
81202;DHT22;71068;47.662;-2.750;2023-11-19T00:44:11;16.60;84.30
81202;DHT22;71068;47.662;-2.750;2023-11-19T00:46:38;16.60;84.40
81202;DHT22;71068;47.662;-2.750;2023-11-19T00:49:04;16.50;84.40
81202;DHT22;71068;47.662;-2.750;2023-11-19T00:51:31;16.50;84.50
81202;DHT22;71068;47.662;-2.750;2023-11-19T00:53:58;16.50;84.40
81202;DHT22;71068;47.662;-2.750;2023-11-19T00:56:24;16.40;84.40
81202;DHT22;71068;47.662;-2.750;2023-11-19T00:58:50;16.50;84.60
81202;DHT22;71068;47.662;-2.750;2023-11-19T01:01:16;16.40;84.50
81202;DHT22;71068;47.662;-2.750;2023-11-19T01:03:42;16.40;84.70
81202;DHT22;71068;47.662;-2.750;2023-11-19T01:06:08;16.50;84.40
81202;DHT22;71068;47.662;-2.750;2023-11-19T01:08:34;16.50;84.40
81202;DHT22;71068;47.662;-2.750;2023-11-19T01:11:03;16.40;84.10
81202;DHT22;71068;47.662;-2.750;2023-11-19T01:13:35;16.40;84.50
81202;DHT22;71068;47.662;-2.750;2023-11-19T01:16:01;16.40;84.30
81202;DHT22;71068;47.662;-2.750;2023-11-19T01:18:27;16.40;84.50
81202;DHT22;71068;47.662;-2.750;2023-11-19T01:20:54;16.40;84.20
81202;DHT22;71068;47.662;-2.750;2023-11-19T01:23:20;16.30;84.20
81202;DHT22;71068;47.662;-2.750;2023-11-19T01:25:46;16.30;84.20
81202;DHT22;71068;47.662;-2.750;2023-11-19T01:28:17;16.40;84.00
81202;DHT22;71068;47.662;-2.750;2023-11-19T01:30:43;16.20;83.80
81202;DHT22;71068;47.662;-2.750;2023-11-19T01:33:09;16.20;84.00
81202;DHT22;71068;47.662;-2.750;2023-11-19T01:35:34;16.30;84.00
81202;DHT22;71068;47.662;-2.750;2023-11-19T01:38:00;16.30;84.10
81202;DHT22;71068;47.662;-2.750;2023-11-19T01:40:27;16.20;84.10
81202;DHT22;71068;47.662;-2.750;2023-11-19T01:42:53;16.20;84.00
81202;DHT22;71068;47.662;-2.750;2023-11-19T01:45:27;16.20;84.00
81202;DHT22;71068;47.662;-2.750;2023-11-19T01:47:55;16.20;83.70
81202;DHT22;71068;47.662;-2.750;2023-11-19T01:50:23;16.10;83.90
81202;DHT22;71068;47.662;-2.750;2023-11-19T01:52:52;16.20;84.10
81202;DHT22;71068;47.662;-2.750;2023-11-19T01:55:20;16.00;84.10
81202;DHT22;71068;47.662;-2.750;2023-11-19T01:57:48;16.10;84.10
81202;DHT22;71068;47.662;-2.750;2023-11-19T02:00:15;16.10;83.70
81202;DHT22;71068;47.662;-2.750;2023-11-19T02:02:51;16.00;84.00
81202;DHT22;71068;47.662;-2.750;2023-11-19T02:05:18;16.10;84.20
81202;DHT22;71068;47.662;-2.750;2023-11-19T02:07:46;16.20;84.20
81202;DHT22;71068;47.662;-2.750;2023-11-19T02:10:12;16.10;84.10
81202;DHT22;71068;47.662;-2.750;2023-11-19T02:12:43;16.00;84.10
81202;DHT22;71068;47.662;-2.750;2023-11-19T02:15:10;16.00;84.10
81202;DHT22;71068;47.662;-2.750;2023-11-19T02:17:36;16.10;84.10
81202;DHT22;71068;47.662;-2.750;2023-11-19T02:20:04;16.00;84.00
81202;DHT22;71068;47.662;-2.750;2023-11-19T02:22:43;16.00;83.90
81202;DHT22;71068;47.662;-2.750;2023-11-19T02:25:30;16.00;84.30
81202;DHT22;71068;47.662;-2.750;2023-11-19T02:28:02;15.90;83.90
81202;DHT22;71068;47.662;-2.750;2023-11-19T02:30:29;15.90;84.40
81202;DHT22;71068;47.662;-2.750;2023-11-19T02:32:58;15.80;84.40
81202;DHT22;71068;47.662;-2.750;2023-11-19T02:35:27;15.90;84.30
81202;DHT22;71068;47.662;-2.750;2023-11-19T02:37:56;15.80;84.10
81202;DHT22;71068;47.662;-2.750;2023-11-19T02:40:23;15.90;84.20
81202;DHT22;71068;47.662;-2.750;2023-11-19T02:42:50;15.80;84.20
81202;DHT22;71068;47.662;-2.750;2023-11-19T02:45:18;15.90;84.20
81202;DHT22;71068;47.662;-2.750;2023-11-19T02:47:44;15.80;84.20
81202;DHT22;71068;47.662;-2.750;2023-11-19T02:50:11;15.80;84.10
81202;DHT22;71068;47.662;-2.750;2023-11-19T02:52:44;15.80;84.30
81202;DHT22;71068;47.662;-2.750;2023-11-19T02:55:12;15.80;84.40
81202;DHT22;71068;47.662;-2.750;2023-11-19T02:57:39;15.80;84.30
81202;DHT22;71068;47.662;-2.750;2023-11-19T03:00:20;15.80;84.10
81202;DHT22;71068;47.662;-2.750;2023-11-19T03:02:51;15.70;84.20
81202;DHT22;71068;47.662;-2.750;2023-11-19T03:05:35;15.70;84.20
81202;DHT22;71068;47.662;-2.750;2023-11-19T03:08:02;15.70;84.30
81202;DHT22;71068;47.662;-2.750;2023-11-19T03:10:28;15.70;84.40
81202;DHT22;71068;47.662;-2.750;2023-11-19T03:12:57;15.70;84.30
81202;DHT22;71068;47.662;-2.750;2023-11-19T03:15:24;15.70;84.30
81202;DHT22;71068;47.662;-2.750;2023-11-19T03:17:51;15.70;84.30
81202;DHT22;71068;47.662;-2.750;2023-11-19T03:20:22;15.70;84.20
81202;DHT22;71068;47.662;-2.750;2023-11-19T03:22:52;15.70;84.30
81202;DHT22;71068;47.662;-2.750;2023-11-19T03:25:18;15.50;84.40
81202;DHT22;71068;47.662;-2.750;2023-11-19T03:27:44;15.50;84.30
81202;DHT22;71068;47.662;-2.750;2023-11-19T03:30:10;15.50;84.40
81202;DHT22;71068;47.662;-2.750;2023-11-19T03:32:37;15.50;84.50
81202;DHT22;71068;47.662;-2.750;2023-11-19T03:35:04;15.50;84.40
81202;DHT22;71068;47.662;-2.750;2023-11-19T03:37:33;15.50;84.40
81202;DHT22;71068;47.662;-2.750;2023-11-19T03:39:59;15.50;84.40
81202;DHT22;71068;47.662;-2.750;2023-11-19T03:42:29;15.50;84.30
81202;DHT22;71068;47.662;-2.750;2023-11-19T03:44:57;15.40;84.40
81202;DHT22;71068;47.662;-2.750;2023-11-19T03:47:23;15.40;84.40
81202;DHT22;71068;47.662;-2.750;2023-11-19T03:49:50;15.40;84.60
81202;DHT22;71068;47.662;-2.750;2023-11-19T03:52:17;15.40;84.50
81202;DHT22;71068;47.662;-2.750;2023-11-19T03:54:44;15.40;84.60
81202;DHT22;71068;47.662;-2.750;2023-11-19T03:57:12;15.40;84.50
81202;DHT22;71068;47.662;-2.750;2023-11-19T03:59:39;15.40;84.70
81202;DHT22;71068;47.662;-2.750;2023-11-19T04:02:05;15.40;84.60
81202;DHT22;71068;47.662;-2.750;2023-11-19T04:04:32;15.50;84.60
81202;DHT22;71068;47.662;-2.750;2023-11-19T04:07:01;15.40;84.60
81202;DHT22;71068;47.662;-2.750;2023-11-19T04:09:29;15.30;84.60
81202;DHT22;71068;47.662;-2.750;2023-11-19T04:11:56;15.40;84.60
81202;DHT22;71068;47.662;-2.750;2023-11-19T04:14:22;15.30;84.50
81202;DHT22;71068;47.662;-2.750;2023-11-19T04:16:52;15.30;84.60
81202;DHT22;71068;47.662;-2.750;2023-11-19T04:19:22;15.30;84.50
81202;DHT22;71068;47.662;-2.750;2023-11-19T04:21:48;15.30;84.40
81202;DHT22;71068;47.662;-2.750;2023-11-19T04:24:21;15.30;84.60
81202;DHT22;71068;47.662;-2.750;2023-11-19T04:26:55;15.40;84.60
81202;DHT22;71068;47.662;-2.750;2023-11-19T04:29:21;15.30;84.70
81202;DHT22;71068;47.662;-2.750;2023-11-19T04:31:47;15.30;84.70
81202;DHT22;71068;47.662;-2.750;2023-11-19T04:34:16;15.30;84.60
81202;DHT22;71068;47.662;-2.750;2023-11-19T04:36:42;15.30;84.50
81202;DHT22;71068;47.662;-2.750;2023-11-19T04:39:09;15.30;84.70
81202;DHT22;71068;47.662;-2.750;2023-11-19T04:41:46;15.30;84.60
81202;DHT22;71068;47.662;-2.750;2023-11-19T04:44:13;15.30;84.70
81202;DHT22;71068;47.662;-2.750;2023-11-19T04:46:39;15.30;84.60
81202;DHT22;71068;47.662;-2.750;2023-11-19T04:49:05;15.30;84.60
81202;DHT22;71068;47.662;-2.750;2023-11-19T04:51:31;15.30;84.60
81202;DHT22;71068;47.662;-2.750;2023-11-19T04:54:04;15.20;84.50
81202;DHT22;71068;47.662;-2.750;2023-11-19T04:56:30;15.30;84.50
81202;DHT22;71068;47.662;-2.750;2023-11-19T04:58:58;15.30;84.30
81202;DHT22;71068;47.662;-2.750;2023-11-19T05:01:24;15.30;84.30
81202;DHT22;71068;47.662;-2.750;2023-11-19T05:03:50;15.40;84.30
81202;DHT22;71068;47.662;-2.750;2023-11-19T05:06:17;15.30;84.30
81202;DHT22;71068;47.662;-2.750;2023-11-19T05:08:43;15.30;84.10
81202;DHT22;71068;47.662;-2.750;2023-11-19T05:11:10;15.30;84.00
81202;DHT22;71068;47.662;-2.750;2023-11-19T05:13:38;15.30;84.00
81202;DHT22;71068;47.662;-2.750;2023-11-19T05:16:06;15.30;84.00
81202;DHT22;71068;47.662;-2.750;2023-11-19T05:18:32;15.30;84.00
81202;DHT22;71068;47.662;-2.750;2023-11-19T05:20:58;15.30;84.00
81202;DHT22;71068;47.662;-2.750;2023-11-19T05:23:25;15.30;83.80
81202;DHT22;71068;47.662;-2.750;2023-11-19T05:26:01;15.30;83.80
81202;DHT22;71068;47.662;-2.750;2023-11-19T05:28:39;15.30;83.80
81202;DHT22;71068;47.662;-2.750;2023-11-19T05:31:11;15.20;83.80
81202;DHT22;71068;47.662;-2.750;2023-11-19T05:33:38;15.40;83.70
81202;DHT22;71068;47.662;-2.750;2023-11-19T05:36:05;15.20;83.50
81202;DHT22;71068;47.662;-2.750;2023-11-19T05:38:45;15.30;83.60
81202;DHT22;71068;47.662;-2.750;2023-11-19T05:41:14;15.20;83.30
81202;DHT22;71068;47.662;-2.750;2023-11-19T05:43:41;15.30;83.50
81202;DHT22;71068;47.662;-2.750;2023-11-19T05:46:07;15.30;83.40
81202;DHT22;71068;47.662;-2.750;2023-11-19T05:48:36;15.30;83.40
81202;DHT22;71068;47.662;-2.750;2023-11-19T05:51:02;15.40;83.60
81202;DHT22;71068;47.662;-2.750;2023-11-19T05:53:29;15.40;83.30
81202;DHT22;71068;47.662;-2.750;2023-11-19T05:55:55;15.40;83.30
81202;DHT22;71068;47.662;-2.750;2023-11-19T05:58:25;15.40;83.20
81202;DHT22;71068;47.662;-2.750;2023-11-19T06:00:52;15.40;83.20
81202;DHT22;71068;47.662;-2.750;2023-11-19T06:03:19;15.30;83.10
81202;DHT22;71068;47.662;-2.750;2023-11-19T06:05:47;15.30;82.60
81202;DHT22;71068;47.662;-2.750;2023-11-19T06:08:14;15.40;83.10
81202;DHT22;71068;47.662;-2.750;2023-11-19T06:10:44;15.30;83.00
81202;DHT22;71068;47.662;-2.750;2023-11-19T06:13:14;15.40;83.10
81202;DHT22;71068;47.662;-2.750;2023-11-19T06:15:44;15.40;83.20
81202;DHT22;71068;47.662;-2.750;2023-11-19T06:18:10;15.30;83.10
81202;DHT22;71068;47.662;-2.750;2023-11-19T06:20:40;15.30;83.10
81202;DHT22;71068;47.662;-2.750;2023-11-19T06:23:06;15.40;83.00
81202;DHT22;71068;47.662;-2.750;2023-11-19T06:25:33;15.30;83.00
81202;DHT22;71068;47.662;-2.750;2023-11-19T06:28:03;15.40;83.00
81202;DHT22;71068;47.662;-2.750;2023-11-19T06:30:30;15.30;83.00
81202;DHT22;71068;47.662;-2.750;2023-11-19T06:32:59;15.30;83.00
81202;DHT22;71068;47.662;-2.750;2023-11-19T06:35:25;15.30;83.00
81202;DHT22;71068;47.662;-2.750;2023-11-19T06:37:52;15.30;82.80
81202;DHT22;71068;47.662;-2.750;2023-11-19T06:40:18;15.30;82.90
81202;DHT22;71068;47.662;-2.750;2023-11-19T06:42:45;15.20;82.80
81202;DHT22;71068;47.662;-2.750;2023-11-19T06:45:13;15.30;82.80
81202;DHT22;71068;47.662;-2.750;2023-11-19T06:47:42;15.20;82.60
81202;DHT22;71068;47.662;-2.750;2023-11-19T06:50:08;15.20;82.80
81202;DHT22;71068;47.662;-2.750;2023-11-19T06:52:35;15.20;82.40
81202;DHT22;71068;47.662;-2.750;2023-11-19T06:55:03;15.20;82.50
81202;DHT22;71068;47.662;-2.750;2023-11-19T06:57:29;15.20;82.40
81202;DHT22;71068;47.662;-2.750;2023-11-19T06:59:58;15.20;82.20
81202;DHT22;71068;47.662;-2.750;2023-11-19T07:02:24;15.10;82.40
81202;DHT22;71068;47.662;-2.750;2023-11-19T07:04:51;15.20;82.50
81202;DHT22;71068;47.662;-2.750;2023-11-19T07:07:17;15.10;82.00
81202;DHT22;71068;47.662;-2.750;2023-11-19T07:09:43;15.20;82.30
81202;DHT22;71068;47.662;-2.750;2023-11-19T07:12:09;15.20;82.00
81202;DHT22;71068;47.662;-2.750;2023-11-19T07:14:35;15.20;82.20
81202;DHT22;71068;47.662;-2.750;2023-11-19T07:17:02;15.20;81.90
81202;DHT22;71068;47.662;-2.750;2023-11-19T07:19:31;15.20;81.70
81202;DHT22;71068;47.662;-2.750;2023-11-19T07:21:57;15.10;81.70
81202;DHT22;71068;47.662;-2.750;2023-11-19T07:24:23;15.20;81.90
81202;DHT22;71068;47.662;-2.750;2023-11-19T07:26:53;15.10;81.90
81202;DHT22;71068;47.662;-2.750;2023-11-19T07:29:19;15.20;81.80
81202;DHT22;71068;47.662;-2.750;2023-11-19T07:31:51;15.10;81.50
81202;DHT22;71068;47.662;-2.750;2023-11-19T07:34:17;15.20;81.70
81202;DHT22;71068;47.662;-2.750;2023-11-19T07:36:43;15.10;81.50
81202;DHT22;71068;47.662;-2.750;2023-11-19T07:39:09;15.10;81.70
81202;DHT22;71068;47.662;-2.750;2023-11-19T07:41:35;15.10;81.60
81202;DHT22;71068;47.662;-2.750;2023-11-19T07:44:01;15.10;81.60
81202;DHT22;71068;47.662;-2.750;2023-11-19T07:46:27;15.20;81.60
81202;DHT22;71068;47.662;-2.750;2023-11-19T07:48:53;15.10;81.60
81202;DHT22;71068;47.662;-2.750;2023-11-19T07:51:19;15.10;81.40
81202;DHT22;71068;47.662;-2.750;2023-11-19T07:53:45;15.10;80.80
81202;DHT22;71068;47.662;-2.750;2023-11-19T07:56:11;15.10;81.20
81202;DHT22;71068;47.662;-2.750;2023-11-19T07:58:41;15.10;81.00
81202;DHT22;71068;47.662;-2.750;2023-11-19T08:01:08;15.10;81.40
81202;DHT22;71068;47.662;-2.750;2023-11-19T08:03:34;15.10;81.50
81202;DHT22;71068;47.662;-2.750;2023-11-19T08:06:00;15.10;81.10
81202;DHT22;71068;47.662;-2.750;2023-11-19T08:08:30;15.20;81.20
81202;DHT22;71068;47.662;-2.750;2023-11-19T08:10:58;15.20;81.40
81202;DHT22;71068;47.662;-2.750;2023-11-19T08:13:24;15.20;81.50
81202;DHT22;71068;47.662;-2.750;2023-11-19T08:15:51;15.30;81.20
81202;DHT22;71068;47.662;-2.750;2023-11-19T08:18:17;15.20;81.20
81202;DHT22;71068;47.662;-2.750;2023-11-19T08:20:45;15.40;81.10
81202;DHT22;71068;47.662;-2.750;2023-11-19T08:23:12;15.30;81.20
81202;DHT22;71068;47.662;-2.750;2023-11-19T08:25:39;15.40;80.90
81202;DHT22;71068;47.662;-2.750;2023-11-19T08:28:06;15.40;80.90
81202;DHT22;71068;47.662;-2.750;2023-11-19T08:30:35;15.30;80.60
81202;DHT22;71068;47.662;-2.750;2023-11-19T08:33:01;15.40;80.90
81202;DHT22;71068;47.662;-2.750;2023-11-19T08:35:29;15.30;81.00
81202;DHT22;71068;47.662;-2.750;2023-11-19T08:37:55;15.40;80.90
81202;DHT22;71068;47.662;-2.750;2023-11-19T08:40:22;15.50;80.80
81202;DHT22;71068;47.662;-2.750;2023-11-19T08:42:48;15.40;80.70
81202;DHT22;71068;47.662;-2.750;2023-11-19T08:45:14;15.50;80.30
81202;DHT22;71068;47.662;-2.750;2023-11-19T08:47:45;15.50;80.30
81202;DHT22;71068;47.662;-2.750;2023-11-19T08:50:11;15.40;78.70
81202;DHT22;71068;47.662;-2.750;2023-11-19T08:52:37;15.60;79.90
81202;DHT22;71068;47.662;-2.750;2023-11-19T08:55:04;15.70;79.70
81202;DHT22;71068;47.662;-2.750;2023-11-19T08:57:34;15.80;79.90
81202;DHT22;71068;47.662;-2.750;2023-11-19T09:00:00;15.90;79.90
81202;DHT22;71068;47.662;-2.750;2023-11-19T09:02:28;16.00;79.40
81202;DHT22;71068;47.662;-2.750;2023-11-19T09:04:57;15.90;79.30
81202;DHT22;71068;47.662;-2.750;2023-11-19T09:07:31;16.10;79.10
81202;DHT22;71068;47.662;-2.750;2023-11-19T09:09:58;16.00;77.80
81202;DHT22;71068;47.662;-2.750;2023-11-19T09:12:32;16.20;78.10
81202;DHT22;71068;47.662;-2.750;2023-11-19T09:15:05;16.10;78.40
81202;DHT22;71068;47.662;-2.750;2023-11-19T09:17:32;16.30;78.20
81202;DHT22;71068;47.662;-2.750;2023-11-19T09:20:01;16.30;77.90
81202;DHT22;71068;47.662;-2.750;2023-11-19T09:22:36;16.30;77.90
81202;DHT22;71068;47.662;-2.750;2023-11-19T09:25:06;16.40;77.50
81202;DHT22;71068;47.662;-2.750;2023-11-19T09:27:35;16.40;77.50
81202;DHT22;71068;47.662;-2.750;2023-11-19T09:30:04;16.40;77.70
81202;DHT22;71068;47.662;-2.750;2023-11-19T09:32:31;16.50;77.30
81202;DHT22;71068;47.662;-2.750;2023-11-19T09:34:59;16.40;77.00
81202;DHT22;71068;47.662;-2.750;2023-11-19T09:37:32;16.50;77.80
81202;DHT22;71068;47.662;-2.750;2023-11-19T09:39:59;16.60;77.60
81202;DHT22;71068;47.662;-2.750;2023-11-19T09:42:25;16.60;77.40
81202;DHT22;71068;47.662;-2.750;2023-11-19T09:44:53;16.50;77.00
81202;DHT22;71068;47.662;-2.750;2023-11-19T09:47:26;16.60;76.60
81202;DHT22;71068;47.662;-2.750;2023-11-19T09:49:53;16.50;77.00
81202;DHT22;71068;47.662;-2.750;2023-11-19T09:52:19;16.50;76.80
81202;DHT22;71068;47.662;-2.750;2023-11-19T09:54:45;16.50;76.50
81202;DHT22;71068;47.662;-2.750;2023-11-19T09:57:13;16.60;76.50
81202;DHT22;71068;47.662;-2.750;2023-11-19T09:59:41;16.80;76.10
81202;DHT22;71068;47.662;-2.750;2023-11-19T10:02:07;17.00;75.90
81202;DHT22;71068;47.662;-2.750;2023-11-19T10:04:35;16.90;74.70
81202;DHT22;71068;47.662;-2.750;2023-11-19T10:07:02;17.10;74.80
81202;DHT22;71068;47.662;-2.750;2023-11-19T10:09:32;17.10;74.90
81202;DHT22;71068;47.662;-2.750;2023-11-19T10:11:58;17.10;74.50
81202;DHT22;71068;47.662;-2.750;2023-11-19T10:14:28;17.10;74.90
81202;DHT22;71068;47.662;-2.750;2023-11-19T10:16:56;17.10;75.10
81202;DHT22;71068;47.662;-2.750;2023-11-19T10:19:22;16.90;75.30
81202;DHT22;71068;47.662;-2.750;2023-11-19T10:21:52;17.10;75.10
81202;DHT22;71068;47.662;-2.750;2023-11-19T10:24:32;17.30;75.20
81202;DHT22;71068;47.662;-2.750;2023-11-19T10:27:07;17.40;74.20
81202;DHT22;71068;47.662;-2.750;2023-11-19T10:29:37;17.40;74.60
81202;DHT22;71068;47.662;-2.750;2023-11-19T10:32:03;17.80;74.00
81202;DHT22;71068;47.662;-2.750;2023-11-19T10:34:31;17.80;73.00
81202;DHT22;71068;47.662;-2.750;2023-11-19T10:36:57;18.00;72.90
81202;DHT22;71068;47.662;-2.750;2023-11-19T10:39:23;18.10;71.90
81202;DHT22;71068;47.662;-2.750;2023-11-19T10:41:50;18.00;70.70
81202;DHT22;71068;47.662;-2.750;2023-11-19T10:44:33;18.00;70.80
81202;DHT22;71068;47.662;-2.750;2023-11-19T10:47:01;17.70;71.20
81202;DHT22;71068;47.662;-2.750;2023-11-19T10:49:28;17.60;71.40
81202;DHT22;71068;47.662;-2.750;2023-11-19T10:51:58;17.40;71.70
81202;DHT22;71068;47.662;-2.750;2023-11-19T10:54:25;17.40;72.30
81202;DHT22;71068;47.662;-2.750;2023-11-19T10:56:58;17.20;72.70
81202;DHT22;71068;47.662;-2.750;2023-11-19T10:59:30;17.10;72.80
81202;DHT22;71068;47.662;-2.750;2023-11-19T11:02:03;17.20;73.10
81202;DHT22;71068;47.662;-2.750;2023-11-19T11:04:33;17.20;72.60
81202;DHT22;71068;47.662;-2.750;2023-11-19T11:07:05;17.20;71.70
81202;DHT22;71068;47.662;-2.750;2023-11-19T11:09:33;17.20;71.50
81202;DHT22;71068;47.662;-2.750;2023-11-19T11:11:59;17.30;71.70
81202;DHT22;71068;47.662;-2.750;2023-11-19T11:14:27;17.60;71.80
81202;DHT22;71068;47.662;-2.750;2023-11-19T11:16:54;17.70;70.80
81202;DHT22;71068;47.662;-2.750;2023-11-19T11:19:22;17.70;70.00
81202;DHT22;71068;47.662;-2.750;2023-11-19T11:21:53;17.90;69.10
81202;DHT22;71068;47.662;-2.750;2023-11-19T11:36:23;17.90;67.00
81202;DHT22;71068;47.662;-2.750;2023-11-19T11:38:49;17.90;68.10
81202;DHT22;71068;47.662;-2.750;2023-11-19T11:41:20;17.80;68.40
81202;DHT22;71068;47.662;-2.750;2023-11-19T11:43:49;17.90;68.30
81202;DHT22;71068;47.662;-2.750;2023-11-19T11:49:06;17.80;67.30
81202;DHT22;71068;47.662;-2.750;2023-11-19T11:51:58;17.80;67.10
81202;DHT22;71068;47.662;-2.750;2023-11-19T11:59:50;17.70;66.60
81202;DHT22;71068;47.662;-2.750;2023-11-19T12:02:18;17.80;66.10
81202;DHT22;71068;47.662;-2.750;2023-11-19T12:04:51;17.80;65.60
81202;DHT22;71068;47.662;-2.750;2023-11-19T12:07:24;18.00;65.90
81202;DHT22;71068;47.662;-2.750;2023-11-19T12:10:08;18.10;66.00
81202;DHT22;71068;47.662;-2.750;2023-11-19T12:12:37;18.30;64.90
81202;DHT22;71068;47.662;-2.750;2023-11-19T12:15:09;18.60;64.00
81202;DHT22;71068;47.662;-2.750;2023-11-19T12:17:46;18.70;62.80
81202;DHT22;71068;47.662;-2.750;2023-11-19T12:20:18;18.80;63.20
81202;DHT22;71068;47.662;-2.750;2023-11-19T12:22:55;18.80;62.10
81202;DHT22;71068;47.662;-2.750;2023-11-19T12:25:21;18.90;62.40
81202;DHT22;71068;47.662;-2.750;2023-11-19T12:27:50;18.90;61.30
81202;DHT22;71068;47.662;-2.750;2023-11-19T12:30:27;19.10;61.30
81202;DHT22;71068;47.662;-2.750;2023-11-19T12:32:55;19.10;62.00
81202;DHT22;71068;47.662;-2.750;2023-11-19T12:35:31;19.10;62.60
81202;DHT22;71068;47.662;-2.750;2023-11-19T12:37:57;19.20;62.10
81202;DHT22;71068;47.662;-2.750;2023-11-19T12:40:25;19.10;61.90
81202;DHT22;71068;47.662;-2.750;2023-11-19T12:42:53;19.10;61.60
81202;DHT22;71068;47.662;-2.750;2023-11-19T12:45:19;18.90;60.80
81202;DHT22;71068;47.662;-2.750;2023-11-19T12:47:50;18.60;61.50
81202;DHT22;71068;47.662;-2.750;2023-11-19T12:50:18;18.30;62.20
81202;DHT22;71068;47.662;-2.750;2023-11-19T12:52:58;18.10;63.20
81202;DHT22;71068;47.662;-2.750;2023-11-19T12:55:29;18.00;63.80
81202;DHT22;71068;47.662;-2.750;2023-11-19T12:57:55;18.00;64.20
81202;DHT22;71068;47.662;-2.750;2023-11-19T13:00:27;18.10;64.10
81202;DHT22;71068;47.662;-2.750;2023-11-19T13:02:57;18.00;64.70
81202;DHT22;71068;47.662;-2.750;2023-11-19T13:05:26;18.20;64.40
81202;DHT22;71068;47.662;-2.750;2023-11-19T13:08:04;18.50;64.20
81202;DHT22;71068;47.662;-2.750;2023-11-19T13:10:51;18.70;63.20
81202;DHT22;71068;47.662;-2.750;2023-11-19T13:13:23;18.70;63.50
81202;DHT22;71068;47.662;-2.750;2023-11-19T13:15:52;18.80;62.30
81202;DHT22;71068;47.662;-2.750;2023-11-19T13:18:19;18.70;62.50
81202;DHT22;71068;47.662;-2.750;2023-11-19T13:20:46;18.40;61.80
81202;DHT22;71068;47.662;-2.750;2023-11-19T13:23:12;18.30;62.10
81202;DHT22;71068;47.662;-2.750;2023-11-19T13:25:38;18.30;63.60
81202;DHT22;71068;47.662;-2.750;2023-11-19T13:28:06;18.50;62.20
81202;DHT22;71068;47.662;-2.750;2023-11-19T13:30:35;18.70;62.80
81202;DHT22;71068;47.662;-2.750;2023-11-19T13:33:01;18.80;61.60
81202;DHT22;71068;47.662;-2.750;2023-11-19T13:35:27;18.70;61.40
81202;DHT22;71068;47.662;-2.750;2023-11-19T13:37:53;18.50;62.60
81202;DHT22;71068;47.662;-2.750;2023-11-19T13:40:19;18.50;62.70
81202;DHT22;71068;47.662;-2.750;2023-11-19T13:42:48;18.40;63.30
81202;DHT22;71068;47.662;-2.750;2023-11-19T13:45:16;18.30;64.10
81202;DHT22;71068;47.662;-2.750;2023-11-19T13:47:48;18.10;65.00
81202;DHT22;71068;47.662;-2.750;2023-11-19T13:50:16;18.00;66.00
81202;DHT22;71068;47.662;-2.750;2023-11-19T13:52:45;17.90;66.30
81202;DHT22;71068;47.662;-2.750;2023-11-19T13:55:13;17.70;67.00
81202;DHT22;71068;47.662;-2.750;2023-11-19T13:57:40;17.70;67.30
81202;DHT22;71068;47.662;-2.750;2023-11-19T14:00:09;17.70;67.60
81202;DHT22;71068;47.662;-2.750;2023-11-19T14:02:49;17.70;67.50
81202;DHT22;71068;47.662;-2.750;2023-11-19T14:05:16;18.00;67.00
81202;DHT22;71068;47.662;-2.750;2023-11-19T14:07:45;18.10;65.90
81202;DHT22;71068;47.662;-2.750;2023-11-19T14:10:14;18.00;66.30
81202;DHT22;71068;47.662;-2.750;2023-11-19T14:12:41;18.00;66.00
81202;DHT22;71068;47.662;-2.750;2023-11-19T14:15:08;18.10;65.70
81202;DHT22;71068;47.662;-2.750;2023-11-19T14:17:38;18.20;65.70
81202;DHT22;71068;47.662;-2.750;2023-11-19T14:20:07;18.20;65.20
81202;DHT22;71068;47.662;-2.750;2023-11-19T14:22:43;18.10;64.90
81202;DHT22;71068;47.662;-2.750;2023-11-19T14:25:14;18.10;65.50
81202;DHT22;71068;47.662;-2.750;2023-11-19T14:27:42;18.10;65.90
81202;DHT22;71068;47.662;-2.750;2023-11-19T14:30:10;18.30;65.60
81202;DHT22;71068;47.662;-2.750;2023-11-19T14:32:40;18.20;64.40
81202;DHT22;71068;47.662;-2.750;2023-11-19T14:35:11;18.50;64.80
81202;DHT22;71068;47.662;-2.750;2023-11-19T14:37:37;18.50;64.10
81202;DHT22;71068;47.662;-2.750;2023-11-19T14:40:06;18.50;62.20
81202;DHT22;71068;47.662;-2.750;2023-11-19T14:42:38;18.40;62.50
81202;DHT22;71068;47.662;-2.750;2023-11-19T14:45:10;18.20;62.50
81202;DHT22;71068;47.662;-2.750;2023-11-19T14:47:39;18.00;63.30
81202;DHT22;71068;47.662;-2.750;2023-11-19T14:50:07;17.70;64.40
81202;DHT22;71068;47.662;-2.750;2023-11-19T14:52:36;17.30;66.20
81202;DHT22;71068;47.662;-2.750;2023-11-19T14:55:20;17.20;67.10
81202;DHT22;71068;47.662;-2.750;2023-11-19T14:58:05;17.00;67.90
81202;DHT22;71068;47.662;-2.750;2023-11-19T15:00:38;16.90;68.70
81202;DHT22;71068;47.662;-2.750;2023-11-19T15:03:06;17.00;68.90
81202;DHT22;71068;47.662;-2.750;2023-11-19T15:05:34;16.80;69.30
81202;DHT22;71068;47.662;-2.750;2023-11-19T15:08:03;16.80;69.90
81202;DHT22;71068;47.662;-2.750;2023-11-19T15:10:42;16.80;69.60
81202;DHT22;71068;47.662;-2.750;2023-11-19T15:13:16;16.90;69.70
81202;DHT22;71068;47.662;-2.750;2023-11-19T15:15:43;16.90;69.40
81202;DHT22;71068;47.662;-2.750;2023-11-19T15:18:09;16.90;68.70
81202;DHT22;71068;47.662;-2.750;2023-11-19T15:20:39;16.90;68.50
81202;DHT22;71068;47.662;-2.750;2023-11-19T15:23:07;17.00;67.90
81202;DHT22;71068;47.662;-2.750;2023-11-19T15:25:37;17.00;67.80
81202;DHT22;71068;47.662;-2.750;2023-11-19T15:28:03;17.00;67.40
81202;DHT22;71068;47.662;-2.750;2023-11-19T15:30:29;17.00;67.00
81202;DHT22;71068;47.662;-2.750;2023-11-19T15:32:55;17.00;66.80
81202;DHT22;71068;47.662;-2.750;2023-11-19T15:35:23;17.00;66.70
81202;DHT22;71068;47.662;-2.750;2023-11-19T15:37:49;17.00;67.00
81202;DHT22;71068;47.662;-2.750;2023-11-19T15:40:15;16.90;67.20
81202;DHT22;71068;47.662;-2.750;2023-11-19T15:42:42;17.00;67.30
81202;DHT22;71068;47.662;-2.750;2023-11-19T15:45:19;17.00;67.50